createdAt,value
2019-03-26T00:02:29.604Z,49.25
2019-03-26T00:04:59.707Z,48.86
2019-03-26T00:07:29.940Z,49.54
2019-03-26T00:10:00.419Z,48.83
2019-03-26T00:12:30.472Z,48.82
2019-03-26T00:15:00.552Z,48.83
2019-03-26T00:17:30.613Z,49.11
2019-03-26T00:20:00.744Z,48.52
2019-03-26T00:22:30.780Z,49.25
2019-03-26T00:25:00.756Z,49.65
2019-03-26T00:27:30.723Z,49.96
2019-03-26T00:30:00.705Z,50.02
2019-03-26T00:32:30.899Z,49.97
2019-03-26T00:35:01.183Z,50.36
2019-03-26T00:37:31.229Z,51.46
2019-03-26T00:40:01.309Z,51.84
2019-03-26T00:42:31.314Z,52.24
2019-03-26T00:45:01.343Z,53.01
2019-03-26T00:47:31.716Z,52.25
2019-03-26T00:50:01.775Z,52.62
2019-03-26T00:52:31.802Z,52.74
2019-03-26T00:55:02.228Z,52.83
2019-03-26T00:57:32.262Z,52.24
2019-03-26T01:00:02.383Z,52.27
2019-03-26T01:02:33.304Z,52.27
2019-03-26T01:05:03.397Z,52.49
2019-03-26T01:07:33.521Z,52.64
2019-03-26T01:10:04.007Z,53.07
2019-03-26T01:12:34.003Z,52.81
2019-03-26T01:15:04.036Z,52.70
2019-03-26T01:17:34.376Z,52.67
2019-03-26T01:20:04.582Z,52.72
2019-03-26T01:22:34.859Z,52.73
2019-03-26T01:25:05.069Z,52.48
2019-03-26T01:27:36.238Z,52.38
2019-03-26T01:30:06.769Z,52.02
2019-03-26T01:32:36.877Z,52.05
2019-03-26T01:35:07.031Z,52.09
2019-03-26T01:37:37.181Z,51.85
2019-03-26T01:40:07.251Z,51.68
2019-03-26T01:42:37.314Z,51.80
2019-03-26T01:45:08.984Z,51.79
2019-03-26T01:47:39.028Z,51.87
2019-03-26T01:50:09.506Z,51.99
2019-03-26T01:52:39.512Z,52.12
2019-03-26T01:55:09.535Z,52.21
2019-03-26T01:57:39.598Z,52.61
2019-03-26T02:00:11.003Z,52.75
2019-03-26T02:02:41.384Z,52.81
2019-03-26T02:05:11.418Z,52.80
2019-03-26T02:07:41.409Z,53.06
2019-03-26T02:10:11.474Z,53.32
2019-03-26T02:12:41.508Z,53.60
2019-03-26T02:15:15.669Z,53.75
2019-03-26T02:17:45.886Z,54.25
2019-03-26T02:20:15.977Z,54.76
2019-03-26T02:22:46.366Z,54.81
2019-03-26T02:25:16.408Z,55.06
2019-03-26T02:27:46.395Z,55.32
2019-03-26T02:30:17.419Z,55.61
2019-03-26T02:32:47.427Z,56.08
2019-03-26T02:35:18.969Z,56.23
2019-03-26T02:37:49.072Z,56.51
2019-03-26T02:40:19.605Z,56.52
2019-03-26T02:42:49.638Z,56.89
2019-03-26T02:45:19.723Z,56.97
2019-03-26T02:47:49.675Z,57.40
2019-03-26T02:50:19.607Z,57.25
2019-03-26T02:52:49.622Z,57.61
2019-03-26T02:55:19.578Z,57.70
2019-03-26T02:57:49.539Z,58.32
2019-03-26T03:00:19.526Z,57.96
2019-03-26T03:02:49.670Z,58.19
2019-03-26T03:05:34.470Z,58.66
2019-03-26T03:07:51.802Z,58.46
2019-03-26T03:10:21.814Z,58.43
2019-03-26T03:12:51.804Z,58.46
2019-03-26T03:15:21.845Z,58.58
2019-03-26T03:17:51.934Z,58.95
2019-03-26T03:20:22.121Z,58.87
2019-03-26T03:22:52.670Z,59.33
2019-03-26T03:25:22.640Z,59.56
2019-03-26T03:27:52.875Z,59.50
2019-03-26T03:30:23.753Z,59.72
2019-03-26T03:32:53.681Z,59.86
2019-03-26T03:35:23.645Z,59.63
2019-03-26T03:37:53.633Z,59.63
2019-03-26T03:40:23.583Z,59.71
2019-03-26T03:42:54.001Z,60.17
2019-03-26T03:45:33.873Z,59.91
2019-03-26T03:48:04.066Z,60.16
2019-03-26T03:50:34.763Z,60.16
2019-03-26T03:53:05.644Z,60.10
2019-03-26T03:55:36.559Z,60.61
2019-03-26T03:58:06.880Z,61.00
2019-03-26T04:00:41.953Z,61.12
2019-03-26T04:03:12.078Z,61.32
2019-03-26T04:05:42.121Z,61.25
2019-03-26T04:08:12.105Z,61.40
2019-03-26T04:10:42.257Z,61.67
2019-03-26T04:13:12.201Z,61.76
2019-03-26T04:15:42.106Z,61.93
2019-03-26T04:18:12.059Z,62.07
2019-03-26T04:20:42.071Z,62.31
2019-03-26T04:23:12.514Z,62.38
2019-03-26T04:25:42.549Z,62.34
2019-03-26T04:28:13.562Z,62.76
2019-03-26T04:30:43.602Z,62.99
2019-03-26T04:33:13.806Z,62.90
2019-03-26T04:35:43.868Z,62.94
2019-03-26T04:38:14.184Z,63.04
2019-03-26T04:40:44.102Z,63.05
2019-03-26T04:43:14.058Z,62.83
2019-03-26T04:45:44.039Z,63.08
2019-03-26T04:48:14.835Z,62.84
2019-03-26T04:50:45.653Z,62.69
2019-03-26T04:53:15.622Z,62.83
2019-03-26T04:55:46.510Z,63.34
2019-03-26T04:58:16.513Z,63.99
2019-03-26T05:00:46.429Z,64.05
2019-03-26T05:03:16.372Z,64.07
2019-03-26T05:05:46.311Z,64.19
2019-03-26T05:08:16.557Z,64.44
2019-03-26T05:10:49.119Z,64.87
2019-03-26T05:13:18.181Z,64.82
2019-03-26T05:15:48.290Z,64.87
2019-03-26T05:18:19.155Z,64.85
2019-03-26T05:20:49.498Z,65.25
2019-03-26T05:23:19.429Z,65.18
2019-03-26T05:25:49.392Z,65.23
2019-03-26T05:28:19.320Z,65.25
2019-03-26T05:30:49.275Z,65.50
2019-03-26T05:33:19.256Z,65.58
2019-03-26T05:35:51.610Z,65.45
2019-03-26T05:38:21.082Z,65.43
2019-03-26T05:40:53.582Z,65.43
2019-03-26T05:43:23.572Z,65.54
2019-03-26T05:45:53.525Z,65.38
2019-03-26T05:48:23.468Z,65.38
2019-03-26T05:50:53.418Z,65.27
2019-03-26T05:53:23.344Z,64.96
2019-03-26T05:55:54.258Z,64.96
2019-03-26T05:58:24.323Z,64.99
2019-03-26T06:00:54.286Z,64.16
2019-03-26T06:03:24.762Z,64.11
2019-03-26T06:05:54.803Z,63.85
2019-03-26T06:08:25.257Z,63.81
2019-03-26T06:10:55.292Z,62.65
2019-03-26T06:13:25.394Z,61.46
2019-03-26T06:15:55.342Z,60.81
2019-03-26T06:18:26.198Z,59.82
2019-03-26T06:20:57.516Z,59.75
2019-03-26T06:23:28.375Z,59.76
2019-03-26T06:25:59.345Z,59.96
2019-03-26T06:28:29.303Z,59.93
2019-03-26T06:30:59.271Z,59.77
2019-03-26T06:33:29.808Z,59.82
2019-03-26T06:35:59.776Z,59.18
2019-03-26T06:38:29.798Z,58.84
2019-03-26T06:40:59.772Z,59.52
2019-03-26T06:43:29.760Z,59.04
2019-03-26T06:46:00.039Z,58.31
2019-03-26T06:48:30.332Z,57.63
2019-03-26T06:51:00.348Z,57.51
2019-03-26T06:53:30.380Z,56.47
2019-03-26T06:56:00.365Z,55.39
2019-03-26T06:58:30.617Z,55.39
2019-03-26T07:01:00.753Z,55.40
2019-03-26T07:03:30.796Z,55.22
2019-03-26T07:06:00.915Z,55.71
2019-03-26T07:08:30.868Z,54.43
2019-03-26T07:11:00.884Z,54.42
2019-03-26T07:13:30.871Z,54.64
2019-03-26T07:16:00.969Z,54.84
2019-03-26T07:18:31.130Z,54.79
2019-03-26T07:21:01.136Z,54.96
2019-03-26T07:23:31.132Z,55.37
2019-03-26T07:26:01.092Z,55.08
2019-03-26T07:28:31.281Z,55.68
2019-03-26T07:31:01.403Z,56.07
2019-03-26T07:33:31.388Z,56.19
2019-03-26T07:36:01.594Z,56.09
2019-03-26T07:38:31.571Z,56.24
2019-03-26T07:41:01.593Z,56.18
2019-03-26T07:43:31.655Z,55.54
2019-03-26T07:46:01.836Z,55.26
2019-03-26T07:48:31.776Z,55.52
2019-03-26T07:51:02.577Z,55.52
2019-03-26T07:53:33.458Z,55.66
2019-03-26T07:56:03.395Z,55.68
2019-03-26T07:58:33.499Z,55.53
2019-03-26T08:01:05.149Z,55.42
2019-03-26T08:03:35.126Z,55.53
2019-03-26T08:06:05.233Z,54.91
2019-03-26T08:08:35.280Z,55.44
2019-03-26T08:11:05.223Z,55.65
2019-03-26T08:13:35.240Z,55.49
2019-03-26T08:16:05.186Z,55.25
2019-03-26T08:18:35.261Z,55.49
2019-03-26T08:21:05.329Z,55.10
2019-03-26T08:23:38.252Z,54.25
2019-03-26T08:26:07.057Z,53.80
2019-03-26T08:28:37.055Z,53.03
2019-03-26T08:31:07.073Z,52.70
2019-03-26T08:33:37.406Z,52.34
2019-03-26T08:36:07.814Z,52.19
2019-03-26T08:38:37.733Z,51.71
2019-03-26T08:41:13.713Z,52.48
2019-03-26T08:43:43.749Z,52.54
2019-03-26T08:46:13.653Z,52.59
2019-03-26T08:48:43.607Z,52.63
2019-03-26T08:51:13.623Z,52.03
2019-03-26T08:53:43.620Z,51.93
2019-03-26T08:56:13.589Z,52.03
2019-03-26T08:58:43.589Z,51.99
2019-03-26T09:01:13.570Z,51.60
2019-03-26T09:03:43.614Z,50.55
2019-03-26T09:06:13.507Z,50.24
2019-03-26T09:08:43.488Z,49.91
2019-03-26T09:11:13.494Z,49.69
2019-03-26T09:13:43.415Z,49.36
2019-03-26T09:16:14.288Z,49.35
2019-03-26T09:18:44.270Z,49.47
2019-03-26T09:21:14.451Z,49.30
2019-03-26T09:23:44.678Z,49.18
2019-03-26T09:26:14.802Z,49.29
2019-03-26T09:28:47.753Z,50.96
2019-03-26T09:31:16.407Z,51.23
2019-03-26T09:33:46.510Z,51.28
2019-03-26T09:36:16.600Z,51.11
2019-03-26T09:38:46.582Z,50.52
2019-03-26T09:41:16.760Z,50.51
2019-03-26T09:43:46.712Z,50.43
2019-03-26T09:46:16.748Z,49.78
2019-03-26T09:48:46.839Z,49.23
2019-03-26T09:51:17.857Z,49.39
2019-03-26T09:53:48.090Z,49.77
2019-03-26T09:56:28.112Z,50.05
2019-03-26T09:58:49.743Z,50.38
2019-03-26T10:01:19.724Z,50.70
2019-03-26T10:03:49.635Z,50.53
2019-03-26T10:06:23.570Z,50.53
2019-03-26T10:08:52.762Z,50.98
2019-03-26T10:11:23.007Z,51.14
2019-03-26T10:13:53.041Z,51.17
2019-03-26T10:16:23.062Z,51.60
2019-03-26T10:18:53.034Z,51.40
2019-03-26T10:21:22.980Z,51.35
2019-03-26T10:23:53.163Z,50.64
2019-03-26T10:26:23.585Z,50.54
2019-03-26T10:28:53.542Z,50.55
2019-03-26T10:31:23.517Z,51.01
2019-03-26T10:33:53.712Z,51.16
2019-03-26T10:36:23.819Z,51.15
2019-03-26T10:39:05.598Z,51.04
2019-03-26T10:41:25.492Z,50.73
2019-03-26T10:43:55.417Z,50.75
2019-03-26T10:46:25.357Z,50.87
2019-03-26T10:48:55.286Z,50.23
2019-03-26T10:51:25.216Z,49.93
2019-03-26T10:53:55.157Z,49.43
2019-03-26T10:56:25.153Z,49.03
2019-03-26T10:58:55.185Z,48.42
2019-03-26T11:01:25.138Z,48.46
2019-03-26T11:03:55.052Z,48.69
2019-03-26T11:06:25.299Z,48.15
2019-03-26T11:08:55.223Z,47.89
2019-03-26T11:11:25.177Z,47.99
2019-03-26T11:13:55.226Z,47.65
2019-03-26T11:16:25.241Z,48.45
2019-03-26T11:18:55.216Z,48.49
2019-03-26T11:21:26.155Z,49.04
2019-03-26T11:23:56.581Z,49.18
2019-03-26T11:26:26.619Z,49.17
2019-03-26T11:28:57.083Z,49.55
2019-03-26T11:31:29.978Z,49.45
2019-03-26T11:33:58.673Z,49.77
2019-03-26T11:36:30.353Z,49.86
2019-03-26T11:39:00.822Z,50.22
2019-03-26T11:41:31.375Z,50.55
2019-03-26T11:44:04.589Z,50.85
2019-03-26T11:46:33.636Z,50.77
2019-03-26T11:49:03.576Z,50.74
2019-03-26T11:51:33.507Z,50.67
2019-03-26T11:54:03.502Z,50.63
2019-03-26T11:56:33.460Z,50.44
2019-03-26T11:59:03.402Z,50.42
2019-03-26T12:01:33.351Z,50.12
2019-03-26T12:04:03.333Z,49.76
2019-03-26T12:06:33.294Z,49.90
2019-03-26T12:09:05.615Z,49.93
2019-03-26T12:11:35.796Z,50.13
2019-03-26T12:14:05.929Z,50.92
2019-03-26T12:16:35.896Z,51.72
2019-03-26T12:19:05.857Z,54.49
2019-03-26T12:21:35.848Z,55.52
2019-03-26T12:24:06.001Z,55.12
2019-03-26T12:26:36.095Z,54.85
2019-03-26T12:29:06.355Z,54.48
2019-03-26T12:31:36.290Z,54.12
2019-03-26T12:34:06.449Z,55.70
2019-03-26T12:36:40.164Z,57.15
2019-03-26T12:39:08.791Z,57.63
2019-03-26T12:41:38.968Z,57.12
2019-03-26T12:44:08.885Z,59.39
2019-03-26T12:46:38.938Z,59.87
2019-03-26T12:49:09.747Z,61.32
2019-03-26T12:51:39.734Z,61.81
2019-03-26T12:54:10.666Z,63.56
2019-03-26T12:56:40.583Z,64.76
2019-03-26T12:59:10.541Z,65.86
2019-03-26T13:01:40.507Z,66.96
2019-03-26T13:04:12.925Z,68.65
2019-03-26T13:06:42.133Z,71.07
2019-03-26T13:09:12.129Z,72.94
2019-03-26T13:11:42.979Z,74.31
2019-03-26T13:14:12.992Z,75.05
2019-03-26T13:16:42.986Z,73.51
2019-03-26T13:19:12.985Z,73.51
2019-03-26T13:21:42.987Z,73.30
2019-03-26T13:24:13.020Z,72.66
2019-03-26T13:26:43.280Z,71.37
2019-03-26T13:29:13.223Z,72.15
2019-03-26T13:31:43.143Z,70.74
2019-03-26T13:34:13.109Z,70.91
2019-03-26T13:36:43.063Z,70.19
2019-03-26T13:39:14.095Z,70.37
2019-03-26T13:41:44.446Z,69.46
2019-03-26T13:44:14.416Z,69.07
2019-03-26T13:46:44.389Z,69.31
2019-03-26T13:49:14.383Z,68.61
2019-03-26T13:51:44.323Z,69.20
2019-03-26T13:54:14.549Z,68.46
2019-03-26T13:56:44.594Z,67.98
2019-03-26T13:59:14.571Z,67.44
2019-03-26T14:01:44.521Z,67.58
2019-03-26T14:04:14.489Z,67.44
2019-03-26T14:06:44.459Z,67.12
2019-03-26T14:09:14.400Z,65.60
2019-03-26T14:11:44.351Z,63.45
2019-03-26T14:14:14.376Z,63.61
2019-03-26T14:16:44.357Z,64.45
2019-03-26T14:19:14.676Z,68.74
2019-03-26T14:21:44.997Z,70.43
2019-03-26T14:24:15.012Z,70.71
2019-03-26T14:26:44.933Z,70.25
2019-03-26T14:29:14.864Z,69.40
2019-03-26T14:31:44.820Z,69.79
2019-03-26T14:34:14.788Z,69.69
2019-03-26T14:36:44.730Z,67.11
2019-03-26T14:39:14.696Z,65.51
2019-03-26T14:41:44.672Z,65.44
2019-03-26T14:44:14.610Z,65.84
2019-03-26T14:46:44.607Z,65.32
2019-03-26T14:49:14.619Z,65.03
2019-03-26T14:51:44.547Z,64.92
2019-03-26T14:54:14.636Z,65.62
2019-03-26T14:56:44.890Z,64.94
2019-03-26T14:59:14.905Z,63.85
2019-03-26T15:01:44.867Z,63.19
2019-03-26T15:04:14.878Z,62.77
2019-03-26T15:06:44.858Z,63.92
2019-03-26T15:09:14.837Z,64.19
2019-03-26T15:11:44.971Z,64.26
2019-03-26T15:14:14.916Z,64.27
2019-03-26T15:16:45.008Z,64.21
2019-03-26T15:19:14.951Z,64.43
2019-03-26T15:21:44.980Z,64.57
2019-03-26T15:24:14.945Z,63.99
2019-03-26T15:26:44.922Z,63.75
2019-03-26T15:29:15.037Z,64.49
2019-03-26T15:31:45.063Z,64.33
2019-03-26T15:34:15.051Z,65.14
2019-03-26T15:36:44.997Z,65.54
2019-03-26T15:39:14.960Z,64.80
2019-03-26T15:41:45.011Z,65.45
2019-03-26T15:44:14.985Z,66.02
2019-03-26T15:46:44.993Z,66.13
2019-03-26T15:49:15.002Z,66.07
2019-03-26T15:51:44.957Z,66.56
2019-03-26T15:54:14.929Z,66.86
2019-03-26T15:56:44.880Z,66.93
2019-03-26T15:59:14.858Z,66.74
2019-03-26T16:01:44.880Z,66.75
2019-03-26T16:04:14.900Z,66.48
2019-03-26T16:06:44.848Z,66.46
2019-03-26T16:09:14.956Z,66.32
2019-03-26T16:11:44.968Z,66.38
2019-03-26T16:14:14.908Z,66.37
2019-03-26T16:16:44.922Z,66.28
2019-03-26T16:19:17.861Z,65.73
2019-03-26T16:21:47.423Z,65.81
2019-03-26T16:24:17.924Z,66.26
2019-03-26T16:26:48.545Z,66.49
2019-03-26T16:29:18.511Z,67.20
2019-03-26T16:31:48.480Z,66.85
2019-03-26T16:34:18.496Z,66.82
2019-03-26T16:36:58.899Z,66.80
2019-03-26T16:39:20.279Z,66.95
2019-03-26T16:41:50.390Z,66.66
2019-03-26T16:44:20.750Z,66.72
2019-03-26T16:46:50.939Z,66.79
2019-03-26T16:49:21.037Z,67.07
2019-03-26T16:51:51.526Z,67.16
2019-03-26T16:54:21.558Z,66.90
2019-03-26T16:56:52.451Z,66.99
2019-03-26T16:59:22.552Z,67.45
2019-03-26T17:01:52.564Z,66.95
2019-03-26T17:04:22.848Z,66.92
2019-03-26T17:06:52.844Z,67.08
2019-03-26T17:09:22.834Z,66.93
2019-03-26T17:12:03.009Z,67.14
2019-03-26T17:14:24.771Z,67.06
2019-03-26T17:16:54.763Z,67.30
2019-03-26T17:19:24.753Z,67.37
2019-03-26T17:21:54.676Z,67.44
2019-03-26T17:24:24.992Z,67.56
2019-03-26T17:26:55.017Z,67.75
2019-03-26T17:29:25.073Z,67.94
2019-03-26T17:31:55.075Z,67.64
2019-03-26T17:34:25.186Z,67.19
2019-03-26T17:36:55.188Z,68.37
2019-03-26T17:39:25.181Z,68.80
2019-03-26T17:41:55.150Z,68.93
2019-03-26T17:44:25.268Z,67.39
2019-03-26T17:46:55.346Z,65.83
2019-03-26T17:49:25.327Z,64.57
2019-03-26T17:51:55.258Z,64.16
2019-03-26T17:54:25.162Z,63.43
2019-03-26T17:56:55.045Z,62.85
2019-03-26T17:59:25.018Z,62.48
2019-03-26T18:01:54.956Z,61.73
2019-03-26T18:04:25.134Z,61.49
2019-03-26T18:06:55.364Z,61.25
2019-03-26T18:09:25.347Z,59.96
2019-03-26T18:11:55.760Z,59.23
2019-03-26T18:14:25.800Z,56.64
2019-03-26T18:16:55.861Z,55.67
2019-03-26T18:19:25.836Z,54.40
2019-03-26T18:21:58.969Z,54.05
2019-03-26T18:24:29.004Z,53.29
2019-03-26T18:26:58.945Z,52.32
2019-03-26T18:29:29.405Z,52.03
2019-03-26T18:31:59.310Z,50.99
2019-03-26T18:34:29.539Z,50.27
2019-03-26T18:36:59.436Z,50.15
2019-03-26T18:39:29.345Z,49.91
2019-03-26T18:41:59.296Z,49.55
2019-03-26T18:44:29.350Z,49.65
2019-03-26T18:46:59.304Z,49.71
2019-03-26T18:49:29.238Z,49.78
2019-03-26T18:51:59.235Z,49.50
2019-03-26T18:54:29.227Z,49.62
2019-03-26T18:56:59.142Z,49.37
2019-03-26T18:59:29.202Z,49.04
2019-03-26T19:01:59.200Z,49.34
2019-03-26T19:04:29.142Z,49.04
2019-03-26T19:06:59.075Z,49.01
2019-03-26T19:09:29.030Z,49.27
2019-03-26T19:11:58.969Z,49.45
2019-03-26T19:14:28.906Z,49.33
2019-03-26T19:16:58.839Z,49.17
2019-03-26T19:19:28.759Z,48.71
2019-03-26T19:21:58.830Z,48.79
2019-03-26T19:24:28.834Z,48.62
2019-03-26T19:26:58.813Z,48.66
2019-03-26T19:29:29.036Z,47.44
2019-03-26T19:31:58.974Z,47.50
2019-03-26T19:34:30.013Z,47.25
2019-03-26T19:36:59.929Z,47.20
2019-03-26T19:39:29.861Z,47.67
2019-03-26T19:41:59.783Z,48.84
2019-03-26T19:44:29.748Z,47.29
2019-03-26T19:46:59.641Z,47.65
2019-03-26T19:49:30.020Z,47.25
2019-03-26T19:51:59.984Z,47.28
2019-03-26T19:54:30.138Z,47.49
2019-03-26T19:57:00.227Z,47.13
2019-03-26T19:59:30.474Z,46.71
2019-03-26T20:02:00.418Z,46.23
2019-03-26T20:04:30.382Z,46.69
2019-03-26T20:07:00.325Z,45.93
2019-03-26T20:09:30.648Z,48.09
2019-03-26T20:12:00.752Z,46.18
2019-03-26T20:14:31.119Z,45.67
2019-03-26T20:17:01.327Z,46.11
2019-03-26T20:19:31.648Z,46.71
2019-03-26T20:22:01.623Z,46.79
2019-03-26T20:24:31.715Z,46.75
2019-03-26T20:27:01.796Z,47.05
2019-03-26T20:29:31.787Z,47.17
2019-03-26T20:32:01.879Z,47.24
2019-03-26T20:34:31.775Z,47.37
2019-03-26T20:37:01.714Z,47.46
2019-03-26T20:39:31.625Z,47.50
2019-03-26T20:42:01.714Z,47.58
2019-03-26T20:44:31.631Z,47.58
2019-03-26T20:47:02.769Z,47.86
2019-03-26T20:49:32.873Z,47.68
2019-03-26T20:52:02.782Z,47.81
2019-03-26T20:54:32.865Z,47.71
2019-03-26T20:57:03.148Z,47.85
2019-03-26T20:59:33.386Z,47.59
2019-03-26T21:02:05.273Z,47.72
2019-03-26T21:04:35.855Z,47.67
2019-03-26T21:07:06.860Z,47.51
2019-03-26T21:09:36.791Z,47.83
2019-03-26T21:12:06.779Z,47.77
2019-03-26T21:14:36.698Z,47.89
2019-03-26T21:17:06.696Z,47.73
2019-03-26T21:19:37.109Z,48.05
2019-03-26T21:22:07.079Z,47.87
2019-03-26T21:24:37.022Z,48.05
2019-03-26T21:27:06.963Z,48.07
2019-03-26T21:29:36.991Z,48.00
2019-03-26T21:32:07.142Z,48.30
2019-03-26T21:34:37.232Z,47.92
2019-03-26T21:37:07.218Z,47.70
2019-03-26T21:39:37.177Z,47.66
2019-03-26T21:42:07.152Z,47.85
2019-03-26T21:44:37.104Z,47.79
2019-03-26T21:47:08.513Z,47.68
2019-03-26T21:49:38.899Z,47.81
2019-03-26T21:52:08.919Z,48.07
2019-03-26T21:54:38.824Z,47.90
2019-03-26T21:57:08.831Z,48.03
2019-03-26T21:59:38.850Z,47.79
2019-03-26T22:02:09.592Z,48.32
2019-03-26T22:04:39.612Z,47.98
2019-03-26T22:07:09.645Z,48.18
2019-03-26T22:09:39.712Z,48.29
2019-03-26T22:12:10.559Z,48.52
2019-03-26T22:14:40.555Z,48.69
2019-03-26T22:17:10.493Z,48.47
2019-03-26T22:19:40.580Z,48.49
2019-03-26T22:22:10.619Z,48.36
2019-03-26T22:24:40.547Z,48.28
2019-03-26T22:27:10.575Z,48.30
2019-03-26T22:29:42.869Z,48.64
2019-03-26T22:32:12.901Z,48.62
2019-03-26T22:34:42.837Z,48.54
2019-03-26T22:37:12.871Z,48.74
2019-03-26T22:39:42.859Z,48.78
2019-03-26T22:42:12.982Z,48.86
2019-03-26T22:44:42.887Z,48.69
2019-03-26T22:47:12.903Z,48.93
2019-03-26T22:49:43.079Z,48.87
2019-03-26T22:52:13.055Z,48.90
2019-03-26T22:54:43.396Z,48.86
2019-03-26T22:57:13.324Z,49.11
2019-03-26T22:59:43.326Z,49.16
2019-03-26T23:02:13.378Z,49.21
2019-03-26T23:04:43.363Z,49.40
2019-03-26T23:07:13.787Z,49.36
2019-03-26T23:09:44.029Z,49.64
2019-03-26T23:12:14.056Z,49.39
2019-03-26T23:14:45.342Z,49.37
2019-03-26T23:17:15.958Z,49.72
2019-03-26T23:19:45.825Z,49.66
2019-03-26T23:22:15.848Z,49.43
2019-03-26T23:24:45.754Z,49.82
2019-03-26T23:27:15.745Z,49.84
2019-03-26T23:29:45.694Z,49.84
2019-03-26T23:32:15.965Z,49.86
2019-03-26T23:34:45.908Z,49.92
2019-03-26T23:37:16.619Z,50.00
2019-03-26T23:39:46.566Z,50.03
2019-03-26T23:42:16.707Z,50.03
2019-03-26T23:44:57.823Z,50.21
2019-03-26T23:47:18.266Z,49.92
2019-03-26T23:49:48.217Z,49.98
2019-03-26T23:52:18.269Z,49.98
2019-03-26T23:54:48.187Z,50.23
2019-03-26T23:57:18.127Z,50.41
2019-03-26T23:59:48.053Z,50.30
